sensor_id;sensor_type;location;lat;lon;timestamp;P1;durP1;ratioP1;P2;durP2;ratioP2
20844;SDS011;10583;49.084;8.646;2023-04-03T00:00:37;1.10;;;1.10;;
20844;SDS011;10583;49.084;8.646;2023-04-03T00:03:04;1.20;;;1.20;;
20844;SDS011;10583;49.084;8.646;2023-04-03T00:05:31;1.30;;;1.30;;
20844;SDS011;10583;49.084;8.646;2023-04-03T00:07:58;1.80;;;1.80;;
20844;SDS011;10583;49.084;8.646;2023-04-03T00:10:27;1.50;;;1.50;;
20844;SDS011;10583;49.084;8.646;2023-04-03T00:12:54;1.20;;;1.20;;
20844;SDS011;10583;49.084;8.646;2023-04-03T00:15:20;1.70;;;1.70;;
20844;SDS011;10583;49.084;8.646;2023-04-03T00:17:47;1.50;;;1.50;;
20844;SDS011;10583;49.084;8.646;2023-04-03T00:20:14;1.17;;;1.17;;
20844;SDS011;10583;49.084;8.646;2023-04-03T00:22:41;1.23;;;1.23;;
20844;SDS011;10583;49.084;8.646;2023-04-03T00:25:08;1.30;;;1.30;;
20844;SDS011;10583;49.084;8.646;2023-04-03T00:27:37;1.50;;;1.50;;
20844;SDS011;10583;49.084;8.646;2023-04-03T00:30:05;1.53;;;1.53;;
20844;SDS011;10583;49.084;8.646;2023-04-03T00:32:34;1.50;;;1.50;;
20844;SDS011;10583;49.084;8.646;2023-04-03T00:35:00;1.10;;;1.10;;
20844;SDS011;10583;49.084;8.646;2023-04-03T00:37:27;1.30;;;1.30;;
20844;SDS011;10583;49.084;8.646;2023-04-03T00:39:54;1.30;;;1.30;;
20844;SDS011;10583;49.084;8.646;2023-04-03T00:42:21;1.30;;;1.30;;
20844;SDS011;10583;49.084;8.646;2023-04-03T00:47:57;1.83;;;1.83;;
20844;SDS011;10583;49.084;8.646;2023-04-03T00:50:26;1.50;;;1.50;;
20844;SDS011;10583;49.084;8.646;2023-04-03T00:52:53;1.30;;;1.30;;
20844;SDS011;10583;49.084;8.646;2023-04-03T00:55:20;1.40;;;1.40;;
20844;SDS011;10583;49.084;8.646;2023-04-03T00:57:47;1.20;;;1.20;;
20844;SDS011;10583;49.084;8.646;2023-04-03T01:00:15;1.40;;;1.40;;
20844;SDS011;10583;49.084;8.646;2023-04-03T01:02:46;1.40;;;1.40;;
20844;SDS011;10583;49.084;8.646;2023-04-03T01:05:13;1.47;;;1.47;;
20844;SDS011;10583;49.084;8.646;2023-04-03T01:07:42;1.43;;;1.43;;
20844;SDS011;10583;49.084;8.646;2023-04-03T01:10:11;1.30;;;1.30;;
20844;SDS011;10583;49.084;8.646;2023-04-03T01:12:41;1.30;;;1.30;;
20844;SDS011;10583;49.084;8.646;2023-04-03T01:15:10;1.50;;;1.50;;
20844;SDS011;10583;49.084;8.646;2023-04-03T01:17:39;1.30;;;1.30;;
20844;SDS011;10583;49.084;8.646;2023-04-03T01:23:23;1.27;;;1.27;;
20844;SDS011;10583;49.084;8.646;2023-04-03T01:25:57;1.10;;;1.10;;
20844;SDS011;10583;49.084;8.646;2023-04-03T01:28:24;1.37;;;1.37;;
20844;SDS011;10583;49.084;8.646;2023-04-03T01:30:53;1.30;;;1.30;;
20844;SDS011;10583;49.084;8.646;2023-04-03T01:33:28;1.50;;;1.50;;
20844;SDS011;10583;49.084;8.646;2023-04-03T01:35:55;1.37;;;1.37;;
20844;SDS011;10583;49.084;8.646;2023-04-03T01:38:22;1.50;;;1.50;;
20844;SDS011;10583;49.084;8.646;2023-04-03T01:40:49;1.57;;;1.57;;
20844;SDS011;10583;49.084;8.646;2023-04-03T01:43:16;1.30;;;1.30;;
20844;SDS011;10583;49.084;8.646;2023-04-03T01:45:42;1.53;;;1.53;;
20844;SDS011;10583;49.084;8.646;2023-04-03T01:48:11;1.50;;;1.50;;
20844;SDS011;10583;49.084;8.646;2023-04-03T01:50:39;1.20;;;1.20;;
20844;SDS011;10583;49.084;8.646;2023-04-03T01:53:06;1.27;;;1.27;;
20844;SDS011;10583;49.084;8.646;2023-04-03T01:55:33;1.77;;;1.77;;
20844;SDS011;10583;49.084;8.646;2023-04-03T01:58:00;1.40;;;1.40;;
20844;SDS011;10583;49.084;8.646;2023-04-03T02:00:26;2.30;;;2.30;;
20844;SDS011;10583;49.084;8.646;2023-04-03T02:02:53;1.40;;;1.40;;
20844;SDS011;10583;49.084;8.646;2023-04-03T02:05:20;1.43;;;1.43;;
20844;SDS011;10583;49.084;8.646;2023-04-03T02:07:48;1.33;;;1.33;;
20844;SDS011;10583;49.084;8.646;2023-04-03T02:10:15;1.60;;;1.60;;
20844;SDS011;10583;49.084;8.646;2023-04-03T02:12:43;1.33;;;1.33;;
20844;SDS011;10583;49.084;8.646;2023-04-03T02:15:10;1.60;;;1.60;;
20844;SDS011;10583;49.084;8.646;2023-04-03T02:17:37;1.57;;;1.57;;
20844;SDS011;10583;49.084;8.646;2023-04-03T02:20:04;1.50;;;1.50;;
20844;SDS011;10583;49.084;8.646;2023-04-03T02:22:31;1.30;;;1.30;;
20844;SDS011;10583;49.084;8.646;2023-04-03T02:24:59;1.47;;;1.47;;
20844;SDS011;10583;49.084;8.646;2023-04-03T02:27:26;1.50;;;1.50;;
20844;SDS011;10583;49.084;8.646;2023-04-03T02:29:52;1.40;;;1.40;;
20844;SDS011;10583;49.084;8.646;2023-04-03T02:32:19;1.83;;;1.83;;
20844;SDS011;10583;49.084;8.646;2023-04-03T02:34:46;1.53;;;1.53;;
20844;SDS011;10583;49.084;8.646;2023-04-03T02:37:12;1.40;;;1.40;;
20844;SDS011;10583;49.084;8.646;2023-04-03T02:39:39;1.50;;;1.50;;
20844;SDS011;10583;49.084;8.646;2023-04-03T02:42:07;1.53;;;1.53;;
20844;SDS011;10583;49.084;8.646;2023-04-03T02:44:34;1.57;;;1.57;;
20844;SDS011;10583;49.084;8.646;2023-04-03T02:47:01;1.60;;;1.60;;
20844;SDS011;10583;49.084;8.646;2023-04-03T02:49:27;1.50;;;1.50;;
20844;SDS011;10583;49.084;8.646;2023-04-03T02:51:54;1.90;;;1.90;;
20844;SDS011;10583;49.084;8.646;2023-04-03T02:54:21;1.70;;;1.70;;
20844;SDS011;10583;49.084;8.646;2023-04-03T02:56:48;1.50;;;1.50;;
20844;SDS011;10583;49.084;8.646;2023-04-03T02:59:16;1.90;;;1.90;;
20844;SDS011;10583;49.084;8.646;2023-04-03T03:01:43;1.77;;;1.77;;
20844;SDS011;10583;49.084;8.646;2023-04-03T03:04:09;1.33;;;1.33;;
20844;SDS011;10583;49.084;8.646;2023-04-03T03:06:36;1.50;;;1.50;;
20844;SDS011;10583;49.084;8.646;2023-04-03T03:09:03;1.93;;;1.93;;
20844;SDS011;10583;49.084;8.646;2023-04-03T03:11:30;2.00;;;2.00;;
20844;SDS011;10583;49.084;8.646;2023-04-03T03:13:57;1.40;;;1.40;;
20844;SDS011;10583;49.084;8.646;2023-04-03T03:16:25;1.60;;;1.60;;
20844;SDS011;10583;49.084;8.646;2023-04-03T03:18:52;1.83;;;1.83;;
20844;SDS011;10583;49.084;8.646;2023-04-03T03:21:19;1.60;;;1.60;;
20844;SDS011;10583;49.084;8.646;2023-04-03T03:23:45;1.67;;;1.67;;
20844;SDS011;10583;49.084;8.646;2023-04-03T03:26:12;1.57;;;1.57;;
20844;SDS011;10583;49.084;8.646;2023-04-03T03:28:39;1.87;;;1.87;;
20844;SDS011;10583;49.084;8.646;2023-04-03T03:31:06;1.80;;;1.80;;
20844;SDS011;10583;49.084;8.646;2023-04-03T03:33:36;1.47;;;1.47;;
20844;SDS011;10583;49.084;8.646;2023-04-03T03:36:03;1.70;;;1.70;;
20844;SDS011;10583;49.084;8.646;2023-04-03T03:38:30;1.60;;;1.60;;
20844;SDS011;10583;49.084;8.646;2023-04-03T03:40:57;1.70;;;1.70;;
20844;SDS011;10583;49.084;8.646;2023-04-03T03:43:23;1.60;;;1.60;;
20844;SDS011;10583;49.084;8.646;2023-04-03T03:45:50;1.87;;;1.87;;
20844;SDS011;10583;49.084;8.646;2023-04-03T03:48:18;1.63;;;1.63;;
20844;SDS011;10583;49.084;8.646;2023-04-03T03:50:47;1.90;;;1.90;;
20844;SDS011;10583;49.084;8.646;2023-04-03T03:53:14;1.73;;;1.73;;
20844;SDS011;10583;49.084;8.646;2023-04-03T03:55:41;1.73;;;1.73;;
20844;SDS011;10583;49.084;8.646;2023-04-03T03:58:08;1.67;;;1.67;;
20844;SDS011;10583;49.084;8.646;2023-04-03T04:00:35;2.37;;;2.37;;
20844;SDS011;10583;49.084;8.646;2023-04-03T04:03:02;1.70;;;1.70;;
20844;SDS011;10583;49.084;8.646;2023-04-03T04:05:28;1.77;;;1.77;;
20844;SDS011;10583;49.084;8.646;2023-04-03T04:07:57;1.80;;;1.80;;
20844;SDS011;10583;49.084;8.646;2023-04-03T04:10:23;2.10;;;2.10;;
20844;SDS011;10583;49.084;8.646;2023-04-03T04:12:50;1.43;;;1.43;;
20844;SDS011;10583;49.084;8.646;2023-04-03T04:15:17;2.07;;;2.07;;
20844;SDS011;10583;49.084;8.646;2023-04-03T04:17:45;1.60;;;1.60;;
20844;SDS011;10583;49.084;8.646;2023-04-03T04:20:11;1.90;;;1.90;;
20844;SDS011;10583;49.084;8.646;2023-04-03T04:22:39;1.63;;;1.63;;
20844;SDS011;10583;49.084;8.646;2023-04-03T04:25:07;1.93;;;1.93;;
20844;SDS011;10583;49.084;8.646;2023-04-03T04:27:34;1.90;;;1.90;;
20844;SDS011;10583;49.084;8.646;2023-04-03T04:30:02;1.63;;;1.63;;
20844;SDS011;10583;49.084;8.646;2023-04-03T04:32:29;1.50;;;1.50;;
20844;SDS011;10583;49.084;8.646;2023-04-03T04:34:56;1.60;;;1.60;;
20844;SDS011;10583;49.084;8.646;2023-04-03T04:37:22;1.70;;;1.70;;
20844;SDS011;10583;49.084;8.646;2023-04-03T04:39:49;1.63;;;1.63;;
20844;SDS011;10583;49.084;8.646;2023-04-03T04:42:17;1.80;;;1.80;;
20844;SDS011;10583;49.084;8.646;2023-04-03T04:44:44;1.60;;;1.60;;
20844;SDS011;10583;49.084;8.646;2023-04-03T04:47:10;1.70;;;1.70;;
20844;SDS011;10583;49.084;8.646;2023-04-03T04:49:37;1.90;;;1.90;;
20844;SDS011;10583;49.084;8.646;2023-04-03T04:52:04;1.70;;;1.70;;
20844;SDS011;10583;49.084;8.646;2023-04-03T04:54:31;1.87;;;1.87;;
20844;SDS011;10583;49.084;8.646;2023-04-03T04:56:58;1.53;;;1.53;;
20844;SDS011;10583;49.084;8.646;2023-04-03T04:59:26;1.90;;;1.90;;
20844;SDS011;10583;49.084;8.646;2023-04-03T05:01:52;1.70;;;1.70;;
20844;SDS011;10583;49.084;8.646;2023-04-03T05:04:19;1.90;;;1.90;;
20844;SDS011;10583;49.084;8.646;2023-04-03T05:06:46;1.90;;;1.90;;
20844;SDS011;10583;49.084;8.646;2023-04-03T05:09:13;1.67;;;1.67;;
20844;SDS011;10583;49.084;8.646;2023-04-03T05:11:39;1.40;;;1.40;;
20844;SDS011;10583;49.084;8.646;2023-04-03T05:14:06;1.53;;;1.53;;
20844;SDS011;10583;49.084;8.646;2023-04-03T05:16:34;1.83;;;1.83;;
20844;SDS011;10583;49.084;8.646;2023-04-03T05:19:01;2.00;;;2.00;;
20844;SDS011;10583;49.084;8.646;2023-04-03T05:21:28;1.90;;;1.90;;
20844;SDS011;10583;49.084;8.646;2023-04-03T05:23:57;1.63;;;1.63;;
20844;SDS011;10583;49.084;8.646;2023-04-03T05:26:24;1.60;;;1.60;;
20844;SDS011;10583;49.084;8.646;2023-04-03T05:28:51;1.87;;;1.87;;
20844;SDS011;10583;49.084;8.646;2023-04-03T05:31:18;2.00;;;2.00;;
20844;SDS011;10583;49.084;8.646;2023-04-03T05:33:46;1.67;;;1.67;;
20844;SDS011;10583;49.084;8.646;2023-04-03T05:36:13;1.83;;;1.83;;
20844;SDS011;10583;49.084;8.646;2023-04-03T05:38:41;1.53;;;1.53;;
20844;SDS011;10583;49.084;8.646;2023-04-03T05:41:07;1.93;;;1.93;;
20844;SDS011;10583;49.084;8.646;2023-04-03T05:43:34;2.00;;;2.00;;
20844;SDS011;10583;49.084;8.646;2023-04-03T05:46:02;2.10;;;2.10;;
20844;SDS011;10583;49.084;8.646;2023-04-03T05:48:29;2.00;;;2.00;;
20844;SDS011;10583;49.084;8.646;2023-04-03T05:50:57;2.00;;;2.00;;
20844;SDS011;10583;49.084;8.646;2023-04-03T05:53:25;1.90;;;1.90;;
20844;SDS011;10583;49.084;8.646;2023-04-03T05:55:55;1.90;;;1.90;;
20844;SDS011;10583;49.084;8.646;2023-04-03T05:58:22;1.47;;;1.47;;
20844;SDS011;10583;49.084;8.646;2023-04-03T06:00:48;2.17;;;2.17;;
20844;SDS011;10583;49.084;8.646;2023-04-03T06:03:15;2.03;;;2.03;;
20844;SDS011;10583;49.084;8.646;2023-04-03T06:05:42;1.63;;;1.63;;
20844;SDS011;10583;49.084;8.646;2023-04-03T06:08:10;1.67;;;1.67;;
20844;SDS011;10583;49.084;8.646;2023-04-03T06:10:37;2.00;;;2.00;;
20844;SDS011;10583;49.084;8.646;2023-04-03T06:13:04;2.70;;;2.70;;
20844;SDS011;10583;49.084;8.646;2023-04-03T06:15:31;1.77;;;1.77;;
20844;SDS011;10583;49.084;8.646;2023-04-03T06:17:58;2.20;;;2.20;;
20844;SDS011;10583;49.084;8.646;2023-04-03T06:20:25;2.20;;;2.20;;
20844;SDS011;10583;49.084;8.646;2023-04-03T06:22:52;3.03;;;3.03;;
20844;SDS011;10583;49.084;8.646;2023-04-03T06:25:20;2.20;;;2.20;;
20844;SDS011;10583;49.084;8.646;2023-04-03T06:27:46;2.10;;;2.10;;
20844;SDS011;10583;49.084;8.646;2023-04-03T06:30:13;1.83;;;1.83;;
20844;SDS011;10583;49.084;8.646;2023-04-03T06:32:40;1.83;;;1.83;;
20844;SDS011;10583;49.084;8.646;2023-04-03T06:35:08;2.10;;;2.10;;
20844;SDS011;10583;49.084;8.646;2023-04-03T06:37:35;1.83;;;1.83;;
20844;SDS011;10583;49.084;8.646;2023-04-03T06:40:02;1.80;;;1.80;;
20844;SDS011;10583;49.084;8.646;2023-04-03T06:42:31;2.00;;;2.00;;
20844;SDS011;10583;49.084;8.646;2023-04-03T06:44:58;2.17;;;2.17;;
20844;SDS011;10583;49.084;8.646;2023-04-03T06:47:25;2.10;;;2.10;;
20844;SDS011;10583;49.084;8.646;2023-04-03T06:49:52;2.60;;;2.60;;
20844;SDS011;10583;49.084;8.646;2023-04-03T06:52:18;3.00;;;3.00;;
20844;SDS011;10583;49.084;8.646;2023-04-03T06:54:45;2.27;;;2.27;;
20844;SDS011;10583;49.084;8.646;2023-04-03T06:57:12;1.90;;;1.90;;
20844;SDS011;10583;49.084;8.646;2023-04-03T06:59:41;2.47;;;2.47;;
20844;SDS011;10583;49.084;8.646;2023-04-03T07:02:09;2.53;;;2.53;;
20844;SDS011;10583;49.084;8.646;2023-04-03T07:04:37;2.10;;;2.10;;
20844;SDS011;10583;49.084;8.646;2023-04-03T07:07:04;2.60;;;2.60;;
20844;SDS011;10583;49.084;8.646;2023-04-03T07:09:31;2.33;;;2.33;;
20844;SDS011;10583;49.084;8.646;2023-04-03T07:11:57;2.57;;;2.57;;
20844;SDS011;10583;49.084;8.646;2023-04-03T07:14:25;2.70;;;2.70;;
20844;SDS011;10583;49.084;8.646;2023-04-03T07:16:53;2.47;;;2.47;;
20844;SDS011;10583;49.084;8.646;2023-04-03T07:19:19;2.83;;;2.83;;
20844;SDS011;10583;49.084;8.646;2023-04-03T07:21:46;2.40;;;2.40;;
20844;SDS011;10583;49.084;8.646;2023-04-03T07:24:13;3.27;;;3.27;;
20844;SDS011;10583;49.084;8.646;2023-04-03T07:26:40;2.83;;;2.83;;
20844;SDS011;10583;49.084;8.646;2023-04-03T07:29:07;2.80;;;2.80;;
20844;SDS011;10583;49.084;8.646;2023-04-03T07:31:33;2.33;;;2.33;;
20844;SDS011;10583;49.084;8.646;2023-04-03T07:34:02;2.80;;;2.80;;
20844;SDS011;10583;49.084;8.646;2023-04-03T07:36:28;2.57;;;2.57;;
20844;SDS011;10583;49.084;8.646;2023-04-03T07:38:58;2.30;;;2.30;;
20844;SDS011;10583;49.084;8.646;2023-04-03T07:41:24;2.50;;;2.50;;
20844;SDS011;10583;49.084;8.646;2023-04-03T07:43:51;2.83;;;2.83;;
20844;SDS011;10583;49.084;8.646;2023-04-03T07:46:18;2.70;;;2.70;;
20844;SDS011;10583;49.084;8.646;2023-04-03T07:48:45;2.73;;;2.73;;
20844;SDS011;10583;49.084;8.646;2023-04-03T07:51:13;2.23;;;2.23;;
20844;SDS011;10583;49.084;8.646;2023-04-03T07:53:40;2.20;;;2.20;;
20844;SDS011;10583;49.084;8.646;2023-04-03T07:56:07;2.23;;;2.23;;
20844;SDS011;10583;49.084;8.646;2023-04-03T07:58:34;2.43;;;2.43;;
20844;SDS011;10583;49.084;8.646;2023-04-03T08:01:01;2.23;;;2.23;;
20844;SDS011;10583;49.084;8.646;2023-04-03T08:03:29;2.20;;;2.20;;
20844;SDS011;10583;49.084;8.646;2023-04-03T08:06:00;2.40;;;2.40;;
20844;SDS011;10583;49.084;8.646;2023-04-03T08:08:29;2.00;;;2.00;;
20844;SDS011;10583;49.084;8.646;2023-04-03T08:10:57;2.30;;;2.30;;
20844;SDS011;10583;49.084;8.646;2023-04-03T08:13:25;2.00;;;2.00;;
20844;SDS011;10583;49.084;8.646;2023-04-03T08:15:52;2.30;;;2.30;;
20844;SDS011;10583;49.084;8.646;2023-04-03T08:18:18;2.20;;;2.20;;
20844;SDS011;10583;49.084;8.646;2023-04-03T08:20:46;2.03;;;2.03;;
20844;SDS011;10583;49.084;8.646;2023-04-03T08:23:13;2.40;;;2.40;;
20844;SDS011;10583;49.084;8.646;2023-04-03T08:25:42;2.20;;;2.20;;
20844;SDS011;10583;49.084;8.646;2023-04-03T08:28:09;1.77;;;1.77;;
20844;SDS011;10583;49.084;8.646;2023-04-03T08:30:38;1.73;;;1.73;;
20844;SDS011;10583;49.084;8.646;2023-04-03T08:33:05;2.20;;;2.20;;
20844;SDS011;10583;49.084;8.646;2023-04-03T08:35:32;1.83;;;1.83;;
20844;SDS011;10583;49.084;8.646;2023-04-03T08:37:59;2.20;;;2.20;;
20844;SDS011;10583;49.084;8.646;2023-04-03T08:40:25;2.10;;;2.10;;
20844;SDS011;10583;49.084;8.646;2023-04-03T08:42:56;1.77;;;1.77;;
20844;SDS011;10583;49.084;8.646;2023-04-03T08:45:37;1.67;;;1.67;;
20844;SDS011;10583;49.084;8.646;2023-04-03T08:48:11;1.83;;;1.83;;
20844;SDS011;10583;49.084;8.646;2023-04-03T08:50:41;1.57;;;1.57;;
20844;SDS011;10583;49.084;8.646;2023-04-03T08:53:12;1.50;;;1.50;;
20844;SDS011;10583;49.084;8.646;2023-04-03T08:55:42;2.30;;;2.30;;
20844;SDS011;10583;49.084;8.646;2023-04-03T08:58:14;1.63;;;1.63;;
20844;SDS011;10583;49.084;8.646;2023-04-03T09:00:45;1.60;;;1.60;;
20844;SDS011;10583;49.084;8.646;2023-04-03T09:03:15;1.70;;;1.70;;
20844;SDS011;10583;49.084;8.646;2023-04-03T09:05:45;1.57;;;1.57;;
20844;SDS011;10583;49.084;8.646;2023-04-03T09:08:19;1.60;;;1.60;;
20844;SDS011;10583;49.084;8.646;2023-04-03T09:10:49;2.07;;;2.07;;
20844;SDS011;10583;49.084;8.646;2023-04-03T09:13:26;1.70;;;1.70;;
20844;SDS011;10583;49.084;8.646;2023-04-03T09:15:59;1.40;;;1.40;;
20844;SDS011;10583;49.084;8.646;2023-04-03T09:18:30;1.33;;;1.33;;
20844;SDS011;10583;49.084;8.646;2023-04-03T09:21:01;1.40;;;1.40;;
20844;SDS011;10583;49.084;8.646;2023-04-03T09:23:36;1.30;;;1.30;;
20844;SDS011;10583;49.084;8.646;2023-04-03T09:26:09;1.77;;;1.77;;
20844;SDS011;10583;49.084;8.646;2023-04-03T09:28:41;1.30;;;1.30;;
20844;SDS011;10583;49.084;8.646;2023-04-03T09:31:13;1.40;;;1.40;;
20844;SDS011;10583;49.084;8.646;2023-04-03T09:33:46;1.30;;;1.30;;
20844;SDS011;10583;49.084;8.646;2023-04-03T09:36:14;1.53;;;1.53;;
20844;SDS011;10583;49.084;8.646;2023-04-03T09:39:04;1.50;;;1.50;;
20844;SDS011;10583;49.084;8.646;2023-04-03T09:41:31;1.40;;;1.40;;
20844;SDS011;10583;49.084;8.646;2023-04-03T09:43:59;1.30;;;1.30;;
20844;SDS011;10583;49.084;8.646;2023-04-03T09:46:28;1.20;;;1.20;;
20844;SDS011;10583;49.084;8.646;2023-04-03T09:48:57;1.60;;;1.60;;
20844;SDS011;10583;49.084;8.646;2023-04-03T09:51:26;1.23;;;1.23;;
20844;SDS011;10583;49.084;8.646;2023-04-03T09:53:54;0.97;;;0.97;;
20844;SDS011;10583;49.084;8.646;2023-04-03T09:56:22;1.10;;;1.10;;
20844;SDS011;10583;49.084;8.646;2023-04-03T09:58:52;1.33;;;1.33;;
20844;SDS011;10583;49.084;8.646;2023-04-03T10:01:42;1.43;;;1.43;;
20844;SDS011;10583;49.084;8.646;2023-04-03T10:04:22;1.30;;;1.30;;
20844;SDS011;10583;49.084;8.646;2023-04-03T10:06:50;1.50;;;1.50;;
20844;SDS011;10583;49.084;8.646;2023-04-03T10:09:19;1.57;;;1.57;;
20844;SDS011;10583;49.084;8.646;2023-04-03T10:11:57;1.40;;;1.40;;
20844;SDS011;10583;49.084;8.646;2023-04-03T10:14:28;1.30;;;1.30;;
20844;SDS011;10583;49.084;8.646;2023-04-03T10:16:56;1.33;;;1.33;;
20844;SDS011;10583;49.084;8.646;2023-04-03T10:19:33;1.20;;;1.20;;
20844;SDS011;10583;49.084;8.646;2023-04-03T10:22:03;1.50;;;1.50;;
20844;SDS011;10583;49.084;8.646;2023-04-03T10:24:36;1.40;;;1.40;;
20844;SDS011;10583;49.084;8.646;2023-04-03T10:27:10;1.30;;;1.30;;
20844;SDS011;10583;49.084;8.646;2023-04-03T10:29:42;1.20;;;1.20;;
20844;SDS011;10583;49.084;8.646;2023-04-03T10:32:21;1.53;;;1.53;;
20844;SDS011;10583;49.084;8.646;2023-04-03T10:35:02;0.80;;;0.80;;
20844;SDS011;10583;49.084;8.646;2023-04-03T10:37:40;0.90;;;0.90;;
20844;SDS011;10583;49.084;8.646;2023-04-03T10:40:22;1.20;;;1.20;;
20844;SDS011;10583;49.084;8.646;2023-04-03T10:42:57;0.90;;;0.90;;
20844;SDS011;10583;49.084;8.646;2023-04-03T10:45:37;1.30;;;1.30;;
20844;SDS011;10583;49.084;8.646;2023-04-03T10:48:16;1.20;;;1.20;;
20844;SDS011;10583;49.084;8.646;2023-04-03T10:50:51;1.20;;;1.20;;
20844;SDS011;10583;49.084;8.646;2023-04-03T10:53:24;1.73;;;1.73;;
20844;SDS011;10583;49.084;8.646;2023-04-03T10:56:01;1.27;;;1.27;;
20844;SDS011;10583;49.084;8.646;2023-04-03T10:58:33;1.60;;;1.60;;
20844;SDS011;10583;49.084;8.646;2023-04-03T11:01:07;1.50;;;1.50;;
20844;SDS011;10583;49.084;8.646;2023-04-03T11:03:36;1.40;;;1.40;;
20844;SDS011;10583;49.084;8.646;2023-04-03T11:06:07;1.27;;;1.27;;
20844;SDS011;10583;49.084;8.646;2023-04-03T11:08:37;1.50;;;1.50;;
20844;SDS011;10583;49.084;8.646;2023-04-03T11:11:08;1.10;;;1.10;;
20844;SDS011;10583;49.084;8.646;2023-04-03T11:13:40;1.00;;;1.00;;
20844;SDS011;10583;49.084;8.646;2023-04-03T11:16:12;1.20;;;1.20;;
20844;SDS011;10583;49.084;8.646;2023-04-03T11:18:42;1.63;;;1.63;;
20844;SDS011;10583;49.084;8.646;2023-04-03T11:21:14;1.30;;;1.30;;
20844;SDS011;10583;49.084;8.646;2023-04-03T11:23:46;1.77;;;1.77;;
20844;SDS011;10583;49.084;8.646;2023-04-03T11:26:14;1.90;;;1.90;;
20844;SDS011;10583;49.084;8.646;2023-04-03T11:28:43;1.83;;;1.83;;
20844;SDS011;10583;49.084;8.646;2023-04-03T11:31:15;1.10;;;1.10;;
20844;SDS011;10583;49.084;8.646;2023-04-03T11:33:54;2.37;;;2.37;;
20844;SDS011;10583;49.084;8.646;2023-04-03T11:36:28;1.50;;;1.50;;
20844;SDS011;10583;49.084;8.646;2023-04-03T11:38:58;2.37;;;2.37;;
20844;SDS011;10583;49.084;8.646;2023-04-03T11:41:31;1.23;;;1.23;;
20844;SDS011;10583;49.084;8.646;2023-04-03T11:43:59;1.20;;;1.20;;
20844;SDS011;10583;49.084;8.646;2023-04-03T11:58:32;1.53;;;1.53;;
20844;SDS011;10583;49.084;8.646;2023-04-03T12:01:04;1.67;;;1.67;;
20844;SDS011;10583;49.084;8.646;2023-04-03T12:06:47;1.90;;;1.90;;
20844;SDS011;10583;49.084;8.646;2023-04-03T12:12:28;1.40;;;1.40;;
20844;SDS011;10583;49.084;8.646;2023-04-03T12:15:11;1.77;;;1.77;;
20844;SDS011;10583;49.084;8.646;2023-04-03T12:17:46;1.20;;;1.20;;
20844;SDS011;10583;49.084;8.646;2023-04-03T12:23:25;1.70;;;1.70;;
20844;SDS011;10583;49.084;8.646;2023-04-03T12:25:53;1.47;;;1.47;;
20844;SDS011;10583;49.084;8.646;2023-04-03T12:28:28;1.53;;;1.53;;
20844;SDS011;10583;49.084;8.646;2023-04-03T12:30:55;1.40;;;1.40;;
20844;SDS011;10583;49.084;8.646;2023-04-03T12:33:24;1.70;;;1.70;;
20844;SDS011;10583;49.084;8.646;2023-04-03T12:36:01;1.83;;;1.83;;
20844;SDS011;10583;49.084;8.646;2023-04-03T12:38:39;1.50;;;1.50;;
20844;SDS011;10583;49.084;8.646;2023-04-03T12:41:18;1.43;;;1.43;;
20844;SDS011;10583;49.084;8.646;2023-04-03T12:43:50;1.63;;;1.63;;
20844;SDS011;10583;49.084;8.646;2023-04-03T12:46:33;1.50;;;1.50;;
20844;SDS011;10583;49.084;8.646;2023-04-03T12:49:10;1.43;;;1.43;;
20844;SDS011;10583;49.084;8.646;2023-04-03T12:51:44;1.43;;;1.43;;
20844;SDS011;10583;49.084;8.646;2023-04-03T12:54:15;1.27;;;1.27;;
20844;SDS011;10583;49.084;8.646;2023-04-03T12:56:46;1.30;;;1.30;;
20844;SDS011;10583;49.084;8.646;2023-04-03T12:59:13;1.20;;;1.20;;
20844;SDS011;10583;49.084;8.646;2023-04-03T13:01:42;2.20;;;2.20;;
20844;SDS011;10583;49.084;8.646;2023-04-03T13:04:10;1.60;;;1.60;;
20844;SDS011;10583;49.084;8.646;2023-04-03T13:06:39;1.50;;;1.50;;
20844;SDS011;10583;49.084;8.646;2023-04-03T13:09:17;2.80;;;2.80;;
20844;SDS011;10583;49.084;8.646;2023-04-03T13:11:47;1.90;;;1.90;;
20844;SDS011;10583;49.084;8.646;2023-04-03T13:14:17;1.60;;;1.60;;
20844;SDS011;10583;49.084;8.646;2023-04-03T13:16:52;1.30;;;1.30;;
20844;SDS011;10583;49.084;8.646;2023-04-03T13:19:19;1.50;;;1.50;;
20844;SDS011;10583;49.084;8.646;2023-04-03T13:21:46;1.47;;;1.47;;
20844;SDS011;10583;49.084;8.646;2023-04-03T13:24:13;1.20;;;1.20;;
20844;SDS011;10583;49.084;8.646;2023-04-03T13:26:41;1.23;;;1.23;;
20844;SDS011;10583;49.084;8.646;2023-04-03T13:29:17;1.30;;;1.30;;
20844;SDS011;10583;49.084;8.646;2023-04-03T13:31:47;1.50;;;1.50;;
20844;SDS011;10583;49.084;8.646;2023-04-03T13:34:19;1.40;;;1.40;;
20844;SDS011;10583;49.084;8.646;2023-04-03T13:36:54;1.70;;;1.70;;
20844;SDS011;10583;49.084;8.646;2023-04-03T13:39:24;1.03;;;1.03;;
20844;SDS011;10583;49.084;8.646;2023-04-03T13:41:53;1.23;;;1.23;;
20844;SDS011;10583;49.084;8.646;2023-04-03T13:44:29;1.30;;;1.30;;
20844;SDS011;10583;49.084;8.646;2023-04-03T13:46:58;1.47;;;1.47;;
20844;SDS011;10583;49.084;8.646;2023-04-03T13:49:32;1.50;;;1.50;;
20844;SDS011;10583;49.084;8.646;2023-04-03T13:52:01;1.43;;;1.43;;
20844;SDS011;10583;49.084;8.646;2023-04-03T13:54:31;1.50;;;1.50;;
20844;SDS011;10583;49.084;8.646;2023-04-03T13:57:02;1.70;;;1.70;;
20844;SDS011;10583;49.084;8.646;2023-04-03T13:59:36;1.30;;;1.30;;
20844;SDS011;10583;49.084;8.646;2023-04-03T14:02:10;1.60;;;1.60;;
20844;SDS011;10583;49.084;8.646;2023-04-03T14:04:46;1.57;;;1.57;;
20844;SDS011;10583;49.084;8.646;2023-04-03T14:07:16;1.83;;;1.83;;
20844;SDS011;10583;49.084;8.646;2023-04-03T14:09:45;1.57;;;1.57;;
20844;SDS011;10583;49.084;8.646;2023-04-03T14:12:13;1.40;;;1.40;;
20844;SDS011;10583;49.084;8.646;2023-04-03T14:14:43;1.10;;;1.10;;
20844;SDS011;10583;49.084;8.646;2023-04-03T14:17:13;1.57;;;1.57;;
20844;SDS011;10583;49.084;8.646;2023-04-03T14:19:42;1.50;;;1.50;;
20844;SDS011;10583;49.084;8.646;2023-04-03T14:22:11;1.57;;;1.57;;
20844;SDS011;10583;49.084;8.646;2023-04-03T14:24:41;1.40;;;1.40;;
20844;SDS011;10583;49.084;8.646;2023-04-03T14:27:11;1.40;;;1.40;;
20844;SDS011;10583;49.084;8.646;2023-04-03T14:29:43;1.40;;;1.40;;
20844;SDS011;10583;49.084;8.646;2023-04-03T14:32:11;1.63;;;1.63;;
20844;SDS011;10583;49.084;8.646;2023-04-03T14:34:39;1.30;;;1.30;;
20844;SDS011;10583;49.084;8.646;2023-04-03T14:37:09;1.40;;;1.40;;
20844;SDS011;10583;49.084;8.646;2023-04-03T14:39:37;1.50;;;1.50;;
20844;SDS011;10583;49.084;8.646;2023-04-03T14:42:04;1.43;;;1.43;;
20844;SDS011;10583;49.084;8.646;2023-04-03T14:44:33;1.67;;;1.67;;
20844;SDS011;10583;49.084;8.646;2023-04-03T14:46:59;1.60;;;1.60;;
20844;SDS011;10583;49.084;8.646;2023-04-03T14:49:27;2.13;;;2.13;;
20844;SDS011;10583;49.084;8.646;2023-04-03T14:51:55;1.53;;;1.53;;
20844;SDS011;10583;49.084;8.646;2023-04-03T14:54:23;1.63;;;1.63;;
20844;SDS011;10583;49.084;8.646;2023-04-03T14:56:52;1.30;;;1.30;;
20844;SDS011;10583;49.084;8.646;2023-04-03T14:59:19;1.70;;;1.70;;
20844;SDS011;10583;49.084;8.646;2023-04-03T15:01:48;1.60;;;1.60;;
20844;SDS011;10583;49.084;8.646;2023-04-03T15:04:15;1.67;;;1.67;;
20844;SDS011;10583;49.084;8.646;2023-04-03T15:06:43;1.70;;;1.70;;
20844;SDS011;10583;49.084;8.646;2023-04-03T15:09:14;1.53;;;1.53;;
20844;SDS011;10583;49.084;8.646;2023-04-03T15:11:46;1.30;;;1.30;;
20844;SDS011;10583;49.084;8.646;2023-04-03T15:14:13;1.70;;;1.70;;
20844;SDS011;10583;49.084;8.646;2023-04-03T15:16:39;1.50;;;1.50;;
20844;SDS011;10583;49.084;8.646;2023-04-03T15:19:07;1.80;;;1.80;;
20844;SDS011;10583;49.084;8.646;2023-04-03T15:21:34;1.20;;;1.20;;
20844;SDS011;10583;49.084;8.646;2023-04-03T15:24:01;1.60;;;1.60;;
20844;SDS011;10583;49.084;8.646;2023-04-03T15:26:28;1.60;;;1.60;;